Selma, Virginia
Current Conditions -  °F | °C
As of 9:35 PM on Thursday 20 Nov 2014 (Local Time) from KHSP Reporting Station
Clear Clear  
Wind Chill: 10°   Ceiling: Unl
Heat Index: 25°   Visibility: 10mi
Dew Point: 14°   Wind: 24mph
Humidity: 62%   Direction: 270°W
Pressure: 29.94"   Gusts: 29mph
Location:  37.8°N, 79.84°W
Report Text: KHSP 210235Z AUTO 27021G25KT 10SM CLR M04/M10 A2994 RMK AO2 T10381101
Loading
Personal Weather Stations






























Interactive Weather Map New forecast layout! Learn more

10-Day Weather Forecast

Advertisements
Track Severe Weather on mobile